createdAt,value
2022-11-09T00:01:39.807Z,30.90
2022-11-09T00:04:08.454Z,30.20
2022-11-09T00:06:37.856Z,27.90
2022-11-09T00:09:09.902Z,29.40
2022-11-09T00:11:38.465Z,28.40
2022-11-09T00:14:06.962Z,29.90
2022-11-09T00:16:35.445Z,31.00
2022-11-09T00:19:03.828Z,28.30
2022-11-09T00:21:32.277Z,27.00
2022-11-09T00:24:00.858Z,31.00
2022-11-09T00:26:29.242Z,29.40
2022-11-09T00:28:57.697Z,27.30
2022-11-09T00:31:26.269Z,31.00
2022-11-09T00:33:56.997Z,30.50
2022-11-09T00:36:28.174Z,31.60
2022-11-09T00:38:59.185Z,26.70
2022-11-09T00:41:28.426Z,28.30
2022-11-09T00:43:57.359Z,29.20
2022-11-09T00:46:26.530Z,29.70
2022-11-09T00:48:56.348Z,29.40
2022-11-09T00:51:25.617Z,29.40
2022-11-09T00:53:56.172Z,28.70
2022-11-09T00:56:25.177Z,35.10
2022-11-09T00:58:56.563Z,28.00
2022-11-09T01:01:25.497Z,28.50
2022-11-09T01:03:54.009Z,32.40
2022-11-09T01:06:24.840Z,28.60
2022-11-09T01:08:53.661Z,28.30
2022-11-09T01:11:23.871Z,30.80
2022-11-09T01:13:55.600Z,28.00
2022-11-09T01:16:24.948Z,30.90
2022-11-09T01:18:55.803Z,27.40
2022-11-09T01:21:27.490Z,27.50
2022-11-09T01:23:58.648Z,27.30
2022-11-09T01:26:30.188Z,27.60
2022-11-09T01:28:58.535Z,29.90
2022-11-09T01:31:27.351Z,26.20
2022-11-09T01:33:55.845Z,26.90
2022-11-09T01:36:25.227Z,25.40
2022-11-09T01:38:53.641Z,27.00
2022-11-09T01:41:25.975Z,25.90
2022-11-09T01:44:03.509Z,28.00
2022-11-09T01:46:57.666Z,28.70
2022-11-09T01:49:41.477Z,26.70
2022-11-09T01:52:26.162Z,27.80
2022-11-09T01:55:07.947Z,25.90
2022-11-09T01:57:59.745Z,24.60
2022-11-09T02:00:30.505Z,25.20
2022-11-09T02:03:05.576Z,22.80
2022-11-09T02:05:39.015Z,23.60
2022-11-09T02:08:09.165Z,22.10
2022-11-09T02:11:07.750Z,24.30
2022-11-09T02:13:40.027Z,24.90
2022-11-09T02:16:12.693Z,27.70
2022-11-09T02:19:03.448Z,27.70
2022-11-09T02:21:33.714Z,25.50
2022-11-09T02:24:02.194Z,27.90
2022-11-09T02:26:41.541Z,22.20
2022-11-09T02:29:14.742Z,24.00
2022-11-09T02:31:48.920Z,23.50
2022-11-09T02:34:20.813Z,22.10
2022-11-09T02:36:49.393Z,24.70
2022-11-09T02:39:24.920Z,24.40
2022-11-09T02:42:03.399Z,27.00
2022-11-09T02:44:39.819Z,25.30
2022-11-09T02:47:09.961Z,27.00
2022-11-09T02:49:38.381Z,26.10
2022-11-09T02:52:06.821Z,23.20
2022-11-09T02:54:35.679Z,25.50
2022-11-09T02:57:05.976Z,26.40
2022-11-09T02:59:34.726Z,28.00
2022-11-09T03:02:03.631Z,25.70
2022-11-09T03:04:32.472Z,23.50
2022-11-09T03:07:02.090Z,24.40
2022-11-09T03:09:31.190Z,27.40
2022-11-09T03:11:59.696Z,25.10
2022-11-09T03:14:28.138Z,26.60
2022-11-09T03:16:58.413Z,26.00
2022-11-09T03:19:28.130Z,21.80
2022-11-09T03:21:56.492Z,28.70
2022-11-09T03:24:25.394Z,26.40
2022-11-09T03:26:56.438Z,24.30
2022-11-09T03:29:25.471Z,22.90
2022-11-09T03:31:53.889Z,27.30
2022-11-09T03:34:22.724Z,24.50
2022-11-09T03:36:51.085Z,27.90
2022-11-09T03:39:20.035Z,24.80
2022-11-09T03:41:50.163Z,30.30
2022-11-09T03:44:20.304Z,24.20
2022-11-09T03:46:48.727Z,23.70
2022-11-09T03:49:17.081Z,22.70
2022-11-09T03:51:45.469Z,24.40
2022-11-09T03:54:13.834Z,25.60
2022-11-09T03:56:42.266Z,29.50
2022-11-09T03:59:10.697Z,28.70
2022-11-09T04:01:39.084Z,26.40
2022-11-09T04:04:07.535Z,21.30
2022-11-09T04:06:36.058Z,27.90
2022-11-09T04:09:04.495Z,25.10
2022-11-09T04:11:32.889Z,30.30
2022-11-09T04:14:01.533Z,25.20
2022-11-09T04:16:29.909Z,27.30
2022-11-09T04:18:58.361Z,29.20
2022-11-09T04:21:26.727Z,25.10
2022-11-09T04:23:55.176Z,29.60
2022-11-09T04:26:23.617Z,30.80
2022-11-09T04:28:52.020Z,30.10
2022-11-09T04:31:23.131Z,28.50
2022-11-09T04:36:24.605Z,26.90
2022-11-09T04:38:52.955Z,28.50
2022-11-09T04:41:21.549Z,25.80
2022-11-09T04:43:49.853Z,33.00
2022-11-09T04:46:18.258Z,29.20
2022-11-09T04:48:47.372Z,29.90
2022-11-09T04:51:15.817Z,31.40
2022-11-09T04:53:44.227Z,28.90
2022-11-09T04:56:13.205Z,29.20
2022-11-09T04:58:42.312Z,26.30
2022-11-09T05:01:13.212Z,27.50
2022-11-09T05:03:42.561Z,26.00
2022-11-09T05:06:29.843Z,27.60
2022-11-09T05:09:00.211Z,31.90
2022-11-09T05:11:29.595Z,27.10
2022-11-09T05:13:59.073Z,31.40
2022-11-09T05:16:29.588Z,29.00
2022-11-09T05:18:58.149Z,28.30
2022-11-09T05:21:27.834Z,26.60
2022-11-09T05:23:59.077Z,24.40
2022-11-09T05:26:29.231Z,27.80
2022-11-09T05:28:59.420Z,30.30
2022-11-09T05:31:29.072Z,27.90
2022-11-09T05:33:59.651Z,27.00
2022-11-09T05:36:30.692Z,24.40
2022-11-09T05:38:59.925Z,26.90
2022-11-09T05:41:28.376Z,30.50
2022-11-09T05:43:56.775Z,26.20
2022-11-09T05:46:26.328Z,27.50
2022-11-09T05:48:54.833Z,23.80
2022-11-09T05:51:23.250Z,25.30
2022-11-09T05:53:51.609Z,26.20
2022-11-09T05:56:20.036Z,28.00
2022-11-09T05:58:48.389Z,24.80
2022-11-09T06:01:19.476Z,27.50
2022-11-09T06:03:48.024Z,22.50
2022-11-09T06:06:17.014Z,25.10
2022-11-09T06:08:45.538Z,22.40
2022-11-09T06:11:18.507Z,23.30
2022-11-09T06:13:53.210Z,26.60
2022-11-09T06:16:23.704Z,25.20
2022-11-09T06:18:52.129Z,25.20
2022-11-09T06:21:20.830Z,26.80
2022-11-09T06:23:49.435Z,26.70
2022-11-09T06:26:17.835Z,24.40
2022-11-09T06:28:46.185Z,28.40
2022-11-09T06:31:17.205Z,25.60
2022-11-09T06:33:45.564Z,28.00
2022-11-09T06:36:14.294Z,26.80
2022-11-09T06:38:42.812Z,25.00
2022-11-09T06:41:11.397Z,22.20
2022-11-09T06:43:39.800Z,24.60
2022-11-09T06:46:11.081Z,23.60
2022-11-09T06:48:39.798Z,23.50
2022-11-09T06:51:08.262Z,21.60
2022-11-09T06:53:38.109Z,21.70
2022-11-09T06:56:07.587Z,23.20
2022-11-09T06:58:37.240Z,20.30
2022-11-09T07:01:17.369Z,28.70
2022-11-09T07:03:45.863Z,19.70
2022-11-09T07:06:14.984Z,19.90
2022-11-09T07:08:43.360Z,22.40
2022-11-09T07:11:16.467Z,19.10
2022-11-09T07:13:44.805Z,31.00
2022-11-09T07:16:17.736Z,25.70
2022-11-09T07:18:46.855Z,21.50
2022-11-09T07:21:15.310Z,23.70
2022-11-09T07:23:44.184Z,22.30
2022-11-09T07:26:12.679Z,19.90
2022-11-09T07:28:41.769Z,19.50
2022-11-09T07:31:10.622Z,21.20
2022-11-09T07:33:39.125Z,28.20
2022-11-09T07:36:07.930Z,20.30
2022-11-09T07:38:39.056Z,19.60
2022-11-09T07:41:07.811Z,17.80
2022-11-09T07:43:36.240Z,18.40
2022-11-09T07:46:05.857Z,17.30
2022-11-09T07:48:34.211Z,16.00
2022-11-09T07:51:03.257Z,17.70
2022-11-09T07:53:31.803Z,17.10
2022-11-09T07:56:02.779Z,16.20
2022-11-09T07:58:31.798Z,17.60
2022-11-09T08:01:00.251Z,17.90
2022-11-09T08:03:28.701Z,16.30
2022-11-09T08:05:57.999Z,18.00
2022-11-09T08:08:26.535Z,16.20
2022-11-09T08:10:57.736Z,17.10
2022-11-09T08:13:26.608Z,16.70
2022-11-09T08:15:55.030Z,16.90
2022-11-09T08:18:23.926Z,17.60
2022-11-09T08:20:52.640Z,15.40
2022-11-09T08:23:22.069Z,16.10
2022-11-09T08:25:51.267Z,16.70
2022-11-09T08:28:20.251Z,15.50
2022-11-09T08:31:00.165Z,13.80
2022-11-09T08:33:31.304Z,13.40
2022-11-09T08:35:59.695Z,16.00
2022-11-09T08:38:28.079Z,16.10
2022-11-09T08:40:58.568Z,14.80
2022-11-09T08:43:27.130Z,16.90
2022-11-09T08:45:55.670Z,13.40
2022-11-09T08:48:24.126Z,16.90
2022-11-09T08:50:55.055Z,15.00
2022-11-09T08:53:25.658Z,13.80
2022-11-09T08:55:54.528Z,15.80
2022-11-09T08:58:23.217Z,14.50
2022-11-09T09:00:52.130Z,15.60
2022-11-09T09:03:20.510Z,13.30
2022-11-09T09:05:48.994Z,15.30
2022-11-09T09:08:22.048Z,14.50
2022-11-09T09:10:51.012Z,12.00
2022-11-09T09:13:22.795Z,11.80
2022-11-09T09:15:51.473Z,12.80
2022-11-09T09:18:20.137Z,13.90
2022-11-09T09:20:48.962Z,11.90
2022-11-09T09:23:17.465Z,11.90
2022-11-09T09:25:45.918Z,13.70
2022-11-09T09:28:14.292Z,13.40
2022-11-09T09:30:42.716Z,12.30
2022-11-09T09:33:12.191Z,12.80
2022-11-09T09:35:40.548Z,10.00
2022-11-09T09:38:08.989Z,11.40
2022-11-09T09:40:45.309Z,13.20
2022-11-09T09:43:46.006Z,12.30
2022-11-09T09:46:25.601Z,11.80
2022-11-09T09:49:20.225Z,11.70
2022-11-09T09:51:51.890Z,11.30
2022-11-09T09:54:25.132Z,13.00
2022-11-09T09:56:57.678Z,11.80
2022-11-09T09:59:42.959Z,13.20
2022-11-09T10:02:21.234Z,11.10
2022-11-09T10:04:50.949Z,9.80
2022-11-09T10:07:24.777Z,13.10
2022-11-09T10:10:20.515Z,12.60
2022-11-09T10:13:13.429Z,11.80
2022-11-09T10:15:49.856Z,10.80
2022-11-09T10:18:46.201Z,11.10
2022-11-09T10:21:36.496Z,11.80
2022-11-09T10:24:29.894Z,11.30
2022-11-09T10:27:00.594Z,11.30
2022-11-09T10:29:36.325Z,12.90
2022-11-09T10:32:22.589Z,14.50
2022-11-09T10:35:07.603Z,14.10
2022-11-09T10:37:42.252Z,10.80
2022-11-09T10:40:28.797Z,11.60
2022-11-09T10:43:15.999Z,13.00
2022-11-09T10:46:08.481Z,12.50
2022-11-09T10:48:55.975Z,14.90
2022-11-09T10:51:47.884Z,13.00
2022-11-09T10:54:38.170Z,10.00
2022-11-09T10:57:25.873Z,12.60
2022-11-09T11:00:18.168Z,12.20
2022-11-09T11:03:17.584Z,13.70
2022-11-09T11:06:07.852Z,11.40
2022-11-09T11:08:57.591Z,12.20
2022-11-09T11:11:44.490Z,13.60
2022-11-09T11:14:41.859Z,13.00
2022-11-09T11:17:38.524Z,10.90
2022-11-09T11:20:33.215Z,14.60
2022-11-09T11:23:23.982Z,15.00
2022-11-09T11:26:19.509Z,12.30
2022-11-09T11:29:18.707Z,12.50
2022-11-09T11:32:14.940Z,13.60
2022-11-09T11:35:05.888Z,15.70
2022-11-09T11:38:20.889Z,14.60
2022-11-09T11:41:43.858Z,14.10
2022-11-09T11:44:59.235Z,13.50
2022-11-09T11:48:15.984Z,13.50
2022-11-09T11:51:13.369Z,8.70
2022-11-09T11:54:10.925Z,13.40
2022-11-09T11:57:30.073Z,10.60
2022-11-09T12:00:21.354Z,12.70
2022-11-09T12:03:39.240Z,11.20
2022-11-09T12:06:53.972Z,12.50
2022-11-09T12:10:00.021Z,14.90
2022-11-09T12:13:09.750Z,13.50
2022-11-09T12:16:02.619Z,13.30
2022-11-09T12:19:11.121Z,13.60
2022-11-09T12:22:18.191Z,14.70
2022-11-09T12:25:21.544Z,11.80
2022-11-09T12:28:39.886Z,12.70
2022-11-09T12:31:41.117Z,14.20
2022-11-09T12:34:33.823Z,10.40
2022-11-09T12:37:28.298Z,12.50
2022-11-09T12:40:37.433Z,19.80
2022-11-09T12:43:35.470Z,13.50
2022-11-09T12:46:29.190Z,13.90
2022-11-09T12:49:35.756Z,14.80
2022-11-09T12:52:28.319Z,14.30
2022-11-09T12:55:17.903Z,13.60
2022-11-09T12:58:05.109Z,12.60
2022-11-09T13:00:55.438Z,14.80
2022-11-09T13:03:55.235Z,17.10
2022-11-09T13:06:42.656Z,16.70
2022-11-09T13:09:43.943Z,17.60
2022-11-09T13:12:40.516Z,17.00
2022-11-09T13:15:29.944Z,15.00
2022-11-09T13:18:22.891Z,15.60
2022-11-09T13:21:34.649Z,17.20
2022-11-09T13:24:30.358Z,16.50
2022-11-09T13:27:41.204Z,17.60
2022-11-09T13:30:31.021Z,17.90
2022-11-09T13:33:22.531Z,19.80
2022-11-09T13:36:10.161Z,16.50
2022-11-09T13:39:29.966Z,17.70
2022-11-09T13:42:36.785Z,16.40
2022-11-09T13:45:46.477Z,12.80
2022-11-09T13:48:49.637Z,14.80
2022-11-09T13:51:36.244Z,15.50
2022-11-09T13:54:30.706Z,17.40
2022-11-09T13:57:18.109Z,15.10
2022-11-09T14:00:07.048Z,18.20
2022-11-09T14:02:58.473Z,24.70
2022-11-09T14:05:45.953Z,23.90
2022-11-09T14:08:40.220Z,24.00
2022-11-09T14:11:48.603Z,24.10
2022-11-09T14:14:38.248Z,22.80
2022-11-09T14:17:30.788Z,24.90
2022-11-09T14:20:57.434Z,27.30
2022-11-09T14:23:44.492Z,18.70
2022-11-09T14:26:31.337Z,20.40
2022-11-09T14:29:24.412Z,18.10
2022-11-09T14:32:29.041Z,16.00
2022-11-09T14:35:32.937Z,19.80
2022-11-09T14:38:27.669Z,18.00
2022-11-09T14:41:25.806Z,17.20
2022-11-09T14:44:35.716Z,26.20
2022-11-09T14:47:32.838Z,20.40
2022-11-09T14:50:25.236Z,23.60
2022-11-09T14:53:25.827Z,23.40
2022-11-09T14:56:17.830Z,24.50
2022-11-09T14:59:07.011Z,23.80
2022-11-09T15:02:08.031Z,25.60
2022-11-09T15:05:01.523Z,22.10
2022-11-09T15:07:48.581Z,22.30
2022-11-09T15:10:36.386Z,25.10
2022-11-09T15:13:31.177Z,26.30
2022-11-09T15:16:26.536Z,26.10
2022-11-09T15:19:30.552Z,25.20
2022-11-09T15:22:52.018Z,27.80
2022-11-09T15:25:41.700Z,26.40
2022-11-09T15:28:30.767Z,25.30
2022-11-09T15:31:19.636Z,21.00
2022-11-09T15:34:22.881Z,23.20
2022-11-09T15:37:27.227Z,23.30
2022-11-09T15:40:18.110Z,24.20
2022-11-09T15:43:04.703Z,32.00
2022-11-09T15:45:51.917Z,25.70
2022-11-09T15:48:42.097Z,45.20
2022-11-09T15:51:33.375Z,49.70
2022-11-09T15:54:21.881Z,40.00
2022-11-09T15:57:15.899Z,36.10
2022-11-09T16:00:07.784Z,35.70
2022-11-09T16:02:58.241Z,36.30
2022-11-09T16:05:45.418Z,39.90
2022-11-09T16:08:32.743Z,77.10
2022-11-09T16:11:19.463Z,73.50
2022-11-09T16:14:06.287Z,55.40
2022-11-09T16:16:53.140Z,47.80
2022-11-09T16:19:39.969Z,61.40
2022-11-09T16:22:32.943Z,48.10
2022-11-09T16:25:20.688Z,152.10
2022-11-09T16:28:07.603Z,242.90
2022-11-09T16:30:54.394Z,247.40
2022-11-09T16:33:41.751Z,240.30
2022-11-09T16:36:29.439Z,167.50
2022-11-09T16:39:19.289Z,131.40
2022-11-09T16:42:09.042Z,113.50
2022-11-09T16:44:58.968Z,110.40
2022-11-09T16:47:50.403Z,123.40
2022-11-09T16:50:37.284Z,118.90
2022-11-09T16:53:27.119Z,129.50
2022-11-09T16:56:14.588Z,173.10
2022-11-09T16:59:01.329Z,255.50
2022-11-09T17:01:59.048Z,246.10
2022-11-09T17:04:45.840Z,214.60
2022-11-09T17:07:41.963Z,212.70
2022-11-09T17:10:29.662Z,188.30
2022-11-09T17:13:16.310Z,150.60
2022-11-09T17:16:09.232Z,119.00
2022-11-09T17:18:57.875Z,105.10
2022-11-09T17:21:44.636Z,99.60
2022-11-09T17:24:31.730Z,87.90
2022-11-09T17:27:18.848Z,71.80
2022-11-09T17:30:07.179Z,71.00
2022-11-09T17:32:54.813Z,91.90
2022-11-09T17:35:41.711Z,102.50
2022-11-09T17:38:30.160Z,75.00
2022-11-09T17:41:20.553Z,66.90
2022-11-09T17:44:07.328Z,64.30
2022-11-09T17:46:54.423Z,63.20
2022-11-09T17:49:41.309Z,61.30
2022-11-09T17:52:28.156Z,58.00
2022-11-09T17:55:16.093Z,59.30
2022-11-09T17:58:02.996Z,66.70
2022-11-09T18:00:50.492Z,64.90
2022-11-09T18:03:38.850Z,67.90
2022-11-09T18:06:26.246Z,69.80
2022-11-09T18:09:40.260Z,63.00
2022-11-09T18:12:20.142Z,65.50
2022-11-09T18:15:07.529Z,61.60
2022-11-09T18:17:54.915Z,70.60
2022-11-09T18:20:41.803Z,65.20
2022-11-09T18:23:29.068Z,50.30
2022-11-09T18:26:15.989Z,51.60
2022-11-09T18:29:03.226Z,50.20
2022-11-09T18:31:50.115Z,50.20
2022-11-09T18:34:36.897Z,51.30
2022-11-09T18:37:23.688Z,48.60
2022-11-09T18:40:11.019Z,51.80
2022-11-09T18:42:57.856Z,52.00
2022-11-09T18:45:45.343Z,46.10
2022-11-09T18:48:33.282Z,50.40
2022-11-09T18:51:20.924Z,47.80
2022-11-09T18:54:10.784Z,45.70
2022-11-09T18:56:59.233Z,52.00
2022-11-09T18:59:46.345Z,43.70
2022-11-09T19:02:34.452Z,51.00
2022-11-09T19:05:21.120Z,52.70
2022-11-09T19:08:07.891Z,124.00
2022-11-09T19:10:54.635Z,77.60
2022-11-09T19:13:41.575Z,72.60
2022-11-09T19:16:28.719Z,53.40
2022-11-09T19:19:16.331Z,54.20
2022-11-09T19:22:03.217Z,73.60
2022-11-09T19:24:49.874Z,59.40
2022-11-09T19:27:37.136Z,57.80
2022-11-09T19:30:26.034Z,49.90
2022-11-09T19:33:13.133Z,45.10
2022-11-09T19:36:28.196Z,40.10
2022-11-09T19:39:07.134Z,39.80
2022-11-09T19:41:54.512Z,36.30
2022-11-09T19:44:41.308Z,37.70
2022-11-09T19:47:27.872Z,44.30
2022-11-09T19:50:15.490Z,50.90
2022-11-09T19:53:02.729Z,37.30
2022-11-09T19:55:49.500Z,43.10
2022-11-09T19:58:36.671Z,42.40
2022-11-09T20:01:24.423Z,43.90
2022-11-09T20:04:11.285Z,39.70
2022-11-09T20:06:58.047Z,54.20
2022-11-09T20:09:44.864Z,47.50
2022-11-09T20:12:49.707Z,45.90
2022-11-09T20:15:39.032Z,42.60
2022-11-09T20:18:26.217Z,45.70
2022-11-09T20:21:13.306Z,44.60
2022-11-09T20:24:00.339Z,42.70
2022-11-09T20:26:47.284Z,42.20
2022-11-09T20:29:34.471Z,40.90
2022-11-09T20:32:23.313Z,47.10
2022-11-09T20:35:10.432Z,47.20
2022-11-09T20:37:57.480Z,44.20
2022-11-09T20:40:44.876Z,46.50
2022-11-09T20:43:33.195Z,49.80
2022-11-09T20:46:22.519Z,42.90
2022-11-09T20:49:09.629Z,45.40
2022-11-09T20:51:56.724Z,48.80
2022-11-09T20:54:44.196Z,45.00
2022-11-09T20:57:31.289Z,47.50
2022-11-09T21:00:24.401Z,47.00
2022-11-09T21:03:12.248Z,46.60
2022-11-09T21:06:01.435Z,50.00
2022-11-09T21:08:51.637Z,45.70
2022-11-09T21:11:58.579Z,41.90
2022-11-09T21:14:45.477Z,45.30
2022-11-09T21:17:32.627Z,46.50
2022-11-09T21:20:19.568Z,41.30
2022-11-09T21:23:12.896Z,44.10
2022-11-09T21:26:19.033Z,47.30
2022-11-09T21:29:29.098Z,42.10
2022-11-09T21:32:17.291Z,41.50
2022-11-09T21:35:07.876Z,39.70
2022-11-09T21:37:57.964Z,48.70
2022-11-09T21:40:44.770Z,41.90
2022-11-09T21:43:31.768Z,44.00
2022-11-09T21:46:19.193Z,46.70
2022-11-09T21:49:08.509Z,47.70
2022-11-09T21:51:56.836Z,58.60
2022-11-09T21:54:44.029Z,215.90
2022-11-09T21:57:31.216Z,237.20
2022-11-09T22:00:18.581Z,262.30
2022-11-09T22:03:08.482Z,84.40
2022-11-09T22:05:56.225Z,57.30
2022-11-09T22:08:47.641Z,53.80
2022-11-09T22:11:53.165Z,42.70
2022-11-09T22:14:58.652Z,40.50
2022-11-09T22:17:45.344Z,43.70
2022-11-09T22:20:51.569Z,41.00
2022-11-09T22:23:38.551Z,47.60
2022-11-09T22:26:26.555Z,45.90
2022-11-09T22:29:13.925Z,50.40
2022-11-09T22:32:01.094Z,52.00
2022-11-09T22:34:48.558Z,43.80
2022-11-09T22:37:35.347Z,46.80
2022-11-09T22:40:22.869Z,37.00
2022-11-09T22:43:09.818Z,37.00
2022-11-09T22:45:56.769Z,37.40
2022-11-09T22:48:44.619Z,42.00
2022-11-09T22:51:31.499Z,47.00
2022-11-09T22:54:18.458Z,42.90
2022-11-09T22:57:05.302Z,37.50
2022-11-09T22:59:52.145Z,40.30
2022-11-09T23:02:39.266Z,45.00
2022-11-09T23:05:26.313Z,44.40
2022-11-09T23:08:13.219Z,42.30
2022-11-09T23:11:00.132Z,43.10
2022-11-09T23:13:52.023Z,48.30
2022-11-09T23:16:39.131Z,50.50
2022-11-09T23:19:26.066Z,46.70
2022-11-09T23:22:13.142Z,46.30
2022-11-09T23:25:18.478Z,49.30
2022-11-09T23:28:05.526Z,53.10
2022-11-09T23:30:52.223Z,51.80
2022-11-09T23:33:39.923Z,57.50
2022-11-09T23:36:26.797Z,50.10
2022-11-09T23:39:13.335Z,54.10
2022-11-09T23:42:00.411Z,51.50
2022-11-09T23:44:47.256Z,47.30
2022-11-09T23:47:34.129Z,57.40
2022-11-09T23:50:21.667Z,53.80
2022-11-09T23:53:10.546Z,48.20
2022-11-09T23:56:09.714Z,50.20
2022-11-09T23:58:56.744Z,56.60
